createdAt,value
2023-10-06T00:02:56.967Z,15.20
2023-10-06T00:06:03.885Z,15.19
2023-10-06T00:09:08.443Z,15.16
2023-10-06T00:12:14.628Z,15.20
2023-10-06T00:15:27.666Z,15.17
2023-10-06T00:18:37.091Z,15.17
2023-10-06T00:21:45.814Z,15.16
2023-10-06T00:25:00.209Z,15.18
2023-10-06T00:28:07.884Z,15.13
2023-10-06T00:31:13.008Z,15.18
2023-10-06T00:34:23.399Z,15.14
2023-10-06T00:37:27.270Z,15.13
2023-10-06T00:40:31.322Z,15.13
2023-10-06T00:43:40.356Z,15.10
2023-10-06T00:46:44.717Z,15.10
2023-10-06T00:49:49.688Z,15.08
2023-10-06T00:52:56.991Z,15.11
2023-10-06T00:56:04.490Z,15.10
2023-10-06T00:59:09.312Z,15.05
2023-10-06T01:02:15.981Z,15.05
2023-10-06T01:05:20.763Z,15.07
2023-10-06T01:08:25.059Z,15.08
2023-10-06T01:11:29.326Z,15.00
2023-10-06T01:14:36.084Z,15.02
2023-10-06T01:17:40.506Z,15.09
2023-10-06T01:20:44.518Z,15.06
2023-10-06T01:23:48.508Z,15.05
2023-10-06T01:27:01.085Z,15.07
2023-10-06T01:30:17.667Z,15.09
2023-10-06T01:33:22.161Z,15.07
2023-10-06T01:36:27.528Z,15.02
2023-10-06T01:39:33.785Z,15.05
2023-10-06T01:42:37.829Z,15.07
2023-10-06T01:45:47.905Z,15.02
2023-10-06T01:48:51.828Z,15.04
2023-10-06T01:52:08.237Z,15.00
2023-10-06T01:55:13.859Z,15.01
2023-10-06T01:58:18.015Z,15.01
2023-10-06T02:01:22.503Z,15.00
2023-10-06T02:04:26.736Z,14.99
2023-10-06T02:07:31.391Z,14.96
2023-10-06T02:10:35.721Z,14.97
2023-10-06T02:13:40.096Z,14.95
2023-10-06T02:16:45.617Z,14.92
2023-10-06T02:19:49.561Z,14.89
2023-10-06T02:22:54.408Z,14.84
2023-10-06T02:25:58.539Z,14.73
2023-10-06T02:29:03.532Z,14.69
2023-10-06T02:32:10.412Z,14.68
2023-10-06T02:35:14.688Z,14.67
2023-10-06T02:38:18.805Z,14.62
2023-10-06T02:41:28.149Z,14.62
2023-10-06T02:44:37.650Z,14.61
2023-10-06T02:47:41.918Z,14.63
2023-10-06T02:50:50.298Z,14.62
2023-10-06T02:54:00.289Z,14.64
2023-10-06T02:57:06.230Z,14.60
2023-10-06T03:00:19.832Z,14.61
2023-10-06T03:03:34.656Z,14.60
2023-10-06T03:06:39.013Z,14.59
2023-10-06T03:09:49.211Z,14.56
2023-10-06T03:12:54.141Z,14.47
2023-10-06T03:15:58.619Z,14.47
2023-10-06T03:19:02.844Z,14.50
2023-10-06T03:22:07.802Z,14.50
2023-10-06T03:25:18.672Z,14.42
2023-10-06T03:28:44.051Z,14.35
2023-10-06T03:31:47.845Z,14.30
2023-10-06T03:34:52.478Z,14.31
2023-10-06T03:38:15.257Z,14.23
2023-10-06T03:41:20.199Z,14.12
2023-10-06T03:44:28.110Z,14.05
2023-10-06T03:47:31.998Z,14.04
2023-10-06T03:50:41.141Z,14.01
2023-10-06T03:53:49.981Z,13.96
2023-10-06T03:56:55.072Z,13.91
2023-10-06T03:59:59.429Z,13.86
2023-10-06T04:03:04.952Z,13.86
2023-10-06T04:06:13.994Z,13.88
2023-10-06T04:09:28.136Z,13.80
2023-10-06T04:12:35.309Z,13.80
2023-10-06T04:15:40.120Z,13.80
2023-10-06T04:18:48.964Z,13.77
2023-10-06T04:21:53.605Z,13.74
2023-10-06T04:24:57.815Z,13.77
2023-10-06T04:28:01.960Z,13.81
2023-10-06T04:31:08.901Z,13.85
2023-10-06T04:34:12.728Z,13.83
2023-10-06T04:37:18.113Z,13.88
2023-10-06T04:40:22.981Z,13.91
2023-10-06T04:43:27.216Z,13.94
2023-10-06T04:46:31.397Z,14.00
2023-10-06T04:49:35.290Z,14.00
2023-10-06T04:52:40.454Z,14.00
2023-10-06T04:55:44.860Z,14.03
2023-10-06T04:58:49.068Z,14.07
2023-10-06T05:01:54.269Z,14.09
2023-10-06T05:04:58.271Z,14.08
2023-10-06T05:08:03.201Z,14.09
2023-10-06T05:11:09.660Z,14.11
2023-10-06T05:14:17.809Z,14.10
2023-10-06T05:17:23.022Z,14.12
2023-10-06T05:20:32.086Z,14.13
2023-10-06T05:23:36.388Z,14.14
2023-10-06T05:26:40.599Z,14.13
2023-10-06T05:29:45.008Z,14.10
2023-10-06T05:32:49.553Z,14.12
2023-10-06T05:35:54.203Z,14.17
2023-10-06T05:38:58.845Z,14.21
2023-10-06T05:42:05.840Z,14.22
2023-10-06T05:45:16.796Z,14.28
2023-10-06T05:48:24.322Z,14.28
2023-10-06T05:51:30.133Z,14.23
2023-10-06T05:54:36.632Z,14.30
2023-10-06T05:57:49.475Z,14.28
2023-10-06T06:00:57.142Z,14.30
2023-10-06T06:04:09.905Z,14.28
2023-10-06T06:07:15.155Z,14.34
2023-10-06T06:10:20.301Z,14.28
2023-10-06T06:13:24.413Z,14.35
2023-10-06T06:16:29.164Z,14.27
2023-10-06T06:19:34.845Z,14.35
2023-10-06T06:22:41.294Z,14.34
2023-10-06T06:25:45.707Z,14.21
2023-10-06T06:28:50.026Z,14.12
2023-10-06T06:31:54.273Z,14.09
2023-10-06T06:34:58.827Z,14.02
2023-10-06T06:38:08.101Z,14.03
2023-10-06T06:41:12.588Z,14.11
2023-10-06T06:44:16.965Z,14.19
2023-10-06T06:47:22.011Z,14.31
2023-10-06T06:50:26.272Z,14.37
2023-10-06T06:53:30.650Z,14.36
2023-10-06T06:56:34.767Z,14.42
2023-10-06T06:59:40.183Z,14.41
2023-10-06T07:02:48.582Z,14.40
2023-10-06T07:05:55.983Z,14.45
2023-10-06T07:09:01.001Z,14.52
2023-10-06T07:12:05.331Z,14.57
2023-10-06T07:15:16.230Z,14.70
2023-10-06T07:18:20.819Z,14.75
2023-10-06T07:21:25.075Z,14.81
2023-10-06T07:24:29.301Z,14.88
2023-10-06T07:27:35.727Z,14.92
2023-10-06T07:30:40.195Z,15.09
2023-10-06T07:33:53.386Z,15.18
2023-10-06T07:36:57.614Z,15.22
2023-10-06T07:40:05.271Z,15.29
2023-10-06T07:43:10.952Z,15.37
2023-10-06T07:46:17.224Z,15.36
2023-10-06T07:49:21.546Z,15.46
2023-10-06T07:52:25.552Z,15.52
2023-10-06T07:55:29.725Z,15.74
2023-10-06T07:58:42.494Z,15.83
2023-10-06T08:01:46.863Z,15.93
2023-10-06T08:04:52.482Z,16.03
2023-10-06T08:07:58.299Z,16.01
2023-10-06T08:11:03.535Z,16.06
2023-10-06T08:14:08.093Z,16.21
2023-10-06T08:17:12.845Z,16.17
2023-10-06T08:20:17.518Z,16.24
2023-10-06T08:23:21.833Z,16.32
2023-10-06T08:26:26.232Z,16.42
2023-10-06T08:29:31.424Z,16.45
2023-10-06T08:32:35.686Z,16.48
2023-10-06T08:35:41.637Z,16.56
2023-10-06T08:38:48.072Z,16.69
2023-10-06T08:41:55.584Z,16.88
2023-10-06T08:44:59.841Z,16.96
2023-10-06T08:48:10.740Z,17.10
2023-10-06T08:51:18.464Z,17.29
2023-10-06T08:54:23.442Z,17.37
2023-10-06T08:57:31.563Z,17.44
2023-10-06T09:00:38.209Z,17.54
2023-10-06T09:03:42.415Z,17.52
2023-10-06T09:07:08.185Z,17.58
2023-10-06T09:10:18.654Z,17.58
2023-10-06T09:13:23.366Z,17.59
2023-10-06T09:16:48.910Z,17.72
2023-10-06T09:19:52.941Z,17.82
2023-10-06T09:22:57.478Z,17.84
2023-10-06T09:26:03.858Z,17.82
2023-10-06T09:29:11.112Z,17.93
2023-10-06T09:32:23.211Z,17.96
2023-10-06T09:35:28.304Z,17.94
2023-10-06T09:38:33.731Z,17.86
2023-10-06T09:41:39.354Z,17.89
2023-10-06T09:44:47.026Z,17.78
2023-10-06T09:47:57.699Z,17.78
2023-10-06T09:51:07.222Z,17.90
2023-10-06T09:54:12.486Z,17.73
2023-10-06T09:57:17.581Z,17.67
2023-10-06T10:00:22.497Z,17.63
2023-10-06T10:03:27.157Z,17.77
2023-10-06T10:06:31.623Z,17.97
2023-10-06T10:09:37.098Z,18.10
2023-10-06T10:12:48.931Z,18.29
2023-10-06T10:15:56.018Z,18.24
2023-10-06T10:19:08.525Z,18.23
2023-10-06T10:22:14.821Z,18.22
2023-10-06T10:25:25.183Z,18.24
2023-10-06T10:28:31.747Z,18.28
2023-10-06T10:31:57.561Z,18.38
2023-10-06T10:35:13.815Z,18.42
2023-10-06T10:38:18.574Z,18.44
2023-10-06T10:41:27.188Z,18.52
2023-10-06T10:44:31.255Z,18.58
2023-10-06T10:47:38.320Z,18.64
2023-10-06T10:50:58.688Z,18.80
2023-10-06T10:54:02.941Z,18.92
2023-10-06T10:57:10.691Z,18.95
2023-10-06T11:00:15.504Z,18.81
2023-10-06T11:03:21.144Z,18.81
2023-10-06T11:06:25.228Z,18.79
2023-10-06T11:09:36.075Z,18.69
2023-10-06T11:12:39.882Z,18.65
2023-10-06T11:15:43.840Z,18.73
2023-10-06T11:18:48.714Z,18.84
2023-10-06T11:21:54.595Z,18.88
2023-10-06T11:25:04.089Z,18.80
2023-10-06T11:28:13.627Z,18.88
2023-10-06T11:31:18.208Z,18.90
2023-10-06T11:34:22.201Z,18.95
2023-10-06T11:37:30.209Z,18.98
2023-10-06T11:40:36.645Z,19.01
2023-10-06T11:43:40.691Z,19.01
2023-10-06T11:46:52.057Z,18.95
2023-10-06T11:50:01.854Z,18.88
2023-10-06T11:53:20.376Z,18.84
2023-10-06T11:56:24.604Z,18.88
2023-10-06T11:59:30.387Z,18.92
2023-10-06T12:02:45.696Z,18.99
2023-10-06T12:05:59.177Z,19.17
2023-10-06T12:09:04.009Z,19.27
2023-10-06T12:12:09.150Z,19.38
2023-10-06T12:15:17.077Z,19.45
2023-10-06T12:18:25.320Z,19.44
2023-10-06T12:21:31.015Z,19.31
2023-10-06T12:24:35.460Z,19.31
2023-10-06T12:27:45.956Z,19.28
2023-10-06T12:30:50.491Z,19.21
2023-10-06T12:33:58.313Z,19.26
2023-10-06T12:37:05.249Z,19.28
2023-10-06T12:40:10.293Z,19.48
2023-10-06T12:43:15.160Z,19.70
2023-10-06T12:46:20.373Z,19.77
2023-10-06T12:49:25.450Z,19.79
2023-10-06T12:52:30.426Z,19.74
2023-10-06T12:55:35.967Z,19.68
2023-10-06T12:58:40.154Z,19.66
2023-10-06T13:01:44.332Z,19.63
2023-10-06T13:04:49.554Z,19.63
2023-10-06T13:07:53.961Z,19.68
2023-10-06T13:10:58.434Z,19.66
2023-10-06T13:14:05.230Z,19.71
2023-10-06T13:17:10.721Z,19.70
2023-10-06T13:20:15.305Z,19.71
2023-10-06T13:23:19.220Z,19.73
2023-10-06T13:26:35.863Z,19.73
2023-10-06T13:29:45.023Z,19.76
2023-10-06T13:32:53.682Z,19.77
2023-10-06T13:35:59.209Z,19.83
2023-10-06T13:39:10.599Z,19.80
2023-10-06T13:42:16.609Z,19.79
2023-10-06T13:45:23.592Z,19.71
2023-10-06T13:48:27.930Z,19.70
2023-10-06T13:51:32.117Z,19.65
2023-10-06T13:54:37.899Z,19.62
2023-10-06T13:57:43.355Z,19.58
2023-10-06T14:00:48.058Z,19.65
2023-10-06T14:03:53.192Z,19.65
2023-10-06T14:06:57.373Z,19.67
2023-10-06T14:10:01.903Z,19.69
2023-10-06T14:13:09.782Z,19.74
2023-10-06T14:16:19.673Z,19.87
2023-10-06T14:19:23.617Z,19.92
2023-10-06T14:22:31.620Z,19.93
2023-10-06T14:25:36.528Z,19.95
2023-10-06T14:28:41.332Z,20.02
2023-10-06T14:32:10.658Z,20.08
2023-10-06T14:35:25.294Z,20.07
2023-10-06T14:38:36.617Z,19.91
2023-10-06T14:41:56.358Z,19.89
2023-10-06T14:45:18.900Z,19.87
2023-10-06T14:48:28.431Z,19.89
2023-10-06T14:51:36.227Z,19.86
2023-10-06T14:54:41.369Z,19.82
2023-10-06T14:57:47.128Z,19.74
2023-10-06T15:00:51.065Z,19.75
2023-10-06T15:04:03.158Z,19.69
2023-10-06T15:10:43.255Z,19.65
2023-10-06T15:13:48.947Z,19.63
2023-10-06T15:17:00.560Z,19.54
2023-10-06T15:20:05.857Z,19.55
2023-10-06T15:23:14.192Z,19.55
2023-10-06T15:26:24.579Z,19.58
2023-10-06T15:29:29.324Z,19.52
2023-10-06T15:32:33.559Z,19.53
2023-10-06T15:35:37.811Z,19.45
2023-10-06T15:38:48.558Z,19.33
2023-10-06T15:41:52.750Z,19.30
2023-10-06T15:44:58.524Z,19.27
2023-10-06T15:48:08.891Z,19.19
2023-10-06T15:51:14.833Z,19.12
2023-10-06T15:54:18.961Z,19.09
2023-10-06T15:57:23.190Z,19.01
2023-10-06T16:00:27.992Z,18.98
2023-10-06T16:03:32.150Z,18.94
2023-10-06T16:06:37.746Z,18.86
2023-10-06T16:09:41.952Z,18.71
2023-10-06T16:12:47.842Z,18.62
2023-10-06T16:16:04.393Z,18.55
2023-10-06T16:19:15.558Z,18.45
2023-10-06T16:22:19.899Z,18.46
2023-10-06T16:25:24.880Z,18.42
2023-10-06T16:28:29.027Z,18.32
2023-10-06T16:31:33.672Z,18.27
2023-10-06T16:34:38.322Z,18.18
2023-10-06T16:37:44.086Z,18.16
2023-10-06T16:40:48.126Z,18.08
2023-10-06T16:43:57.313Z,18.00
2023-10-06T16:47:03.112Z,17.96
2023-10-06T16:50:10.970Z,17.89
2023-10-06T16:53:15.155Z,17.83
2023-10-06T16:56:20.065Z,17.79
2023-10-06T16:59:24.533Z,17.77
2023-10-06T17:02:30.235Z,17.72
2023-10-06T17:05:36.274Z,17.70
2023-10-06T17:08:41.473Z,17.64
2023-10-06T17:11:47.995Z,17.61
2023-10-06T17:14:55.282Z,17.58
2023-10-06T17:17:59.575Z,17.61
2023-10-06T17:21:07.968Z,17.58
2023-10-06T17:24:12.485Z,17.64
2023-10-06T17:27:16.997Z,17.61
2023-10-06T17:30:21.356Z,17.63
2023-10-06T17:33:25.673Z,17.61
2023-10-06T17:36:30.796Z,17.63
2023-10-06T17:39:34.876Z,17.58
2023-10-06T17:42:48.085Z,17.57
2023-10-06T17:45:52.693Z,17.48
2023-10-06T17:48:58.179Z,17.47
2023-10-06T17:52:02.708Z,17.48
2023-10-06T17:55:10.033Z,17.44
2023-10-06T17:58:14.957Z,17.39
2023-10-06T18:01:20.000Z,17.36
2023-10-06T18:04:24.324Z,17.28
2023-10-06T18:07:28.887Z,17.25
2023-10-06T18:10:33.368Z,17.27
2023-10-06T18:13:38.620Z,17.24
2023-10-06T18:16:45.729Z,17.29
2023-10-06T18:19:50.393Z,17.24
2023-10-06T18:22:56.220Z,17.20
2023-10-06T18:26:00.654Z,17.20
2023-10-06T18:29:05.367Z,17.25
2023-10-06T18:32:09.682Z,17.27
2023-10-06T18:35:14.631Z,17.21
2023-10-06T18:38:19.116Z,17.18
2023-10-06T18:41:27.527Z,17.12
2023-10-06T18:44:31.784Z,17.09
2023-10-06T18:47:36.961Z,17.09
2023-10-06T18:50:41.167Z,17.01
2023-10-06T18:53:45.669Z,16.99
2023-10-06T18:56:50.039Z,16.96
2023-10-06T18:59:54.432Z,16.92
2023-10-06T19:02:58.699Z,16.93
2023-10-06T19:06:05.132Z,16.89
2023-10-06T19:09:16.022Z,16.88
2023-10-06T19:12:20.172Z,16.87
2023-10-06T19:15:24.575Z,16.86
2023-10-06T19:18:30.309Z,16.81
2023-10-06T19:21:34.557Z,16.84
2023-10-06T19:24:40.576Z,16.82
2023-10-06T19:27:44.995Z,16.79
2023-10-06T19:30:59.189Z,16.79
2023-10-06T19:34:03.329Z,16.76
2023-10-06T19:37:09.179Z,16.83
2023-10-06T19:40:13.890Z,16.70
2023-10-06T19:43:21.507Z,16.73
2023-10-06T19:46:25.602Z,16.70
2023-10-06T19:49:29.931Z,16.67
2023-10-06T19:52:35.375Z,16.63
2023-10-06T19:55:40.635Z,16.59
2023-10-06T19:58:45.685Z,16.64
2023-10-06T20:01:49.997Z,16.63
2023-10-06T20:04:54.427Z,16.57
2023-10-06T20:07:58.473Z,16.57
2023-10-06T20:11:02.740Z,16.58
2023-10-06T20:14:08.260Z,16.57
2023-10-06T20:17:16.052Z,16.59
2023-10-06T20:20:23.666Z,16.55
2023-10-06T20:23:27.842Z,16.56
2023-10-06T20:26:32.734Z,16.53
2023-10-06T20:29:36.707Z,16.56
2023-10-06T20:32:41.314Z,16.57
2023-10-06T20:35:45.643Z,16.64
2023-10-06T20:38:49.905Z,16.72
2023-10-06T20:41:54.053Z,16.75
2023-10-06T20:44:58.354Z,16.70
2023-10-06T20:48:06.827Z,16.70
2023-10-06T20:51:17.686Z,16.75
2023-10-06T20:54:21.822Z,16.67
2023-10-06T20:57:28.299Z,16.64
2023-10-06T21:00:32.785Z,16.63
2023-10-06T21:03:37.154Z,16.65
2023-10-06T21:06:41.163Z,16.67
2023-10-06T21:09:46.850Z,16.69
2023-10-06T21:12:50.946Z,16.67
2023-10-06T21:15:55.090Z,16.69
2023-10-06T21:18:59.638Z,16.72
2023-10-06T21:22:04.743Z,16.67
2023-10-06T21:25:18.178Z,16.73
2023-10-06T21:28:23.849Z,16.73
2023-10-06T21:31:28.033Z,16.75
2023-10-06T21:34:32.084Z,16.80
2023-10-06T21:37:36.113Z,16.78
2023-10-06T21:40:40.601Z,16.83
2023-10-06T21:43:44.972Z,16.81
2023-10-06T21:46:49.375Z,16.81
2023-10-06T21:49:54.038Z,16.88
2023-10-06T21:52:58.257Z,16.90
2023-10-06T21:56:13.049Z,16.88
2023-10-06T21:59:17.380Z,16.88
2023-10-06T22:02:22.583Z,16.88
2023-10-06T22:05:26.741Z,16.92
2023-10-06T22:08:31.397Z,16.88
2023-10-06T22:11:35.555Z,16.88
2023-10-06T22:14:39.815Z,16.87
2023-10-06T22:17:44.121Z,16.83
2023-10-06T22:20:48.437Z,16.78
2023-10-06T22:23:52.865Z,16.77
2023-10-06T22:27:00.277Z,16.76
2023-10-06T22:30:04.713Z,16.78
2023-10-06T22:33:08.824Z,16.72
2023-10-06T22:36:15.520Z,16.68
2023-10-06T22:39:20.526Z,16.66
2023-10-06T22:42:24.831Z,16.66
2023-10-06T22:45:29.367Z,16.65
2023-10-06T22:48:34.669Z,16.59
2023-10-06T22:51:39.147Z,16.64
2023-10-06T22:54:46.297Z,16.66
2023-10-06T22:57:51.411Z,16.62
2023-10-06T23:00:55.311Z,16.64
2023-10-06T23:03:59.492Z,16.64
2023-10-06T23:07:04.026Z,16.59
2023-10-06T23:10:09.164Z,16.57
2023-10-06T23:13:14.703Z,16.54
2023-10-06T23:16:19.495Z,16.53
2023-10-06T23:19:23.917Z,16.48
2023-10-06T23:22:28.982Z,16.47
2023-10-06T23:25:50.657Z,16.51
2023-10-06T23:28:56.104Z,16.50
2023-10-06T23:32:00.277Z,16.47
2023-10-06T23:35:05.001Z,16.52
2023-10-06T23:38:12.828Z,16.46
2023-10-06T23:41:18.807Z,16.48
2023-10-06T23:44:22.748Z,16.46
2023-10-06T23:47:29.901Z,16.44
2023-10-06T23:50:35.036Z,16.36
2023-10-06T23:53:41.690Z,16.36
2023-10-06T23:56:48.473Z,16.35
2023-10-06T23:59:52.579Z,16.34
